createdAt,value
2022-12-04T00:01:08.989Z,20.55
2022-12-04T00:03:36.472Z,23.60
2022-12-04T00:06:17.254Z,23.00
2022-12-04T00:08:44.004Z,22.70
2022-12-04T00:11:12.030Z,20.20
2022-12-04T00:13:39.150Z,21.08
2022-12-04T00:16:08.487Z,20.65
2022-12-04T00:18:35.652Z,19.48
2022-12-04T00:21:06.922Z,20.48
2022-12-04T00:23:34.756Z,22.95
2022-12-04T00:26:03.278Z,19.95
2022-12-04T00:28:29.806Z,19.63
2022-12-04T00:30:56.183Z,21.02
2022-12-04T00:33:23.584Z,19.95
2022-12-04T00:36:00.764Z,20.85
2022-12-04T00:38:27.591Z,19.42
2022-12-04T00:40:54.756Z,20.10
2022-12-04T00:43:22.355Z,19.90
2022-12-04T00:45:49.430Z,19.70
2022-12-04T00:48:16.048Z,19.52
2022-12-04T00:50:42.409Z,20.10
2022-12-04T00:53:08.862Z,21.40
2022-12-04T00:55:41.085Z,20.83
2022-12-04T00:58:07.879Z,20.85
2022-12-04T01:00:35.823Z,20.55
2022-12-04T01:03:02.646Z,20.73
2022-12-04T01:05:29.111Z,21.33
2022-12-04T01:07:55.563Z,20.08
2022-12-04T01:10:22.114Z,20.45
2022-12-04T01:12:53.616Z,19.70
2022-12-04T01:15:22.816Z,20.50
2022-12-04T01:18:03.574Z,21.02
2022-12-04T01:20:32.547Z,20.85
2022-12-04T01:22:59.048Z,20.90
2022-12-04T01:25:25.399Z,21.67
2022-12-04T01:27:51.757Z,21.83
2022-12-04T01:30:20.138Z,21.33
2022-12-04T01:32:46.508Z,21.33
2022-12-04T01:35:12.975Z,22.05
2022-12-04T01:37:39.615Z,20.85
2022-12-04T01:40:06.868Z,20.38
2022-12-04T01:42:33.247Z,22.98
2022-12-04T01:45:30.767Z,20.67
2022-12-04T01:48:06.539Z,21.13
2022-12-04T01:50:33.443Z,21.77
2022-12-04T01:53:02.044Z,20.60
2022-12-04T01:55:29.945Z,21.00
2022-12-04T01:57:56.947Z,21.35
2022-12-04T02:00:24.187Z,21.50
2022-12-04T02:02:50.902Z,21.17
2022-12-04T02:05:20.811Z,20.30
2022-12-04T02:10:17.170Z,20.20
2022-12-04T02:13:03.402Z,21.80
2022-12-04T02:15:50.883Z,20.05
2022-12-04T02:18:27.427Z,21.70
2022-12-04T02:21:14.029Z,20.98
2022-12-04T02:23:58.872Z,20.65
2022-12-04T02:26:34.011Z,20.75
2022-12-04T02:29:27.605Z,21.05
2022-12-04T02:32:16.148Z,21.45
2022-12-04T02:34:55.590Z,20.40
2022-12-04T02:37:32.356Z,21.00
2022-12-04T02:40:07.737Z,21.63
2022-12-04T02:42:42.400Z,22.38
2022-12-04T02:45:14.315Z,21.95
2022-12-04T02:47:43.247Z,21.55
2022-12-04T02:50:13.522Z,21.90
2022-12-04T02:52:46.396Z,22.80
2022-12-04T02:55:21.755Z,22.25
2022-12-04T02:57:53.187Z,21.65
2022-12-04T03:00:21.228Z,21.67
2022-12-04T03:02:55.347Z,22.05
2022-12-04T03:05:27.696Z,21.13
2022-12-04T03:08:01.079Z,22.17
2022-12-04T03:10:34.277Z,22.23
2022-12-04T03:13:09.262Z,21.50
2022-12-04T03:15:45.905Z,21.40
2022-12-04T03:18:18.337Z,21.92
2022-12-04T03:20:48.298Z,22.33
2022-12-04T03:23:20.451Z,22.83
2022-12-04T03:25:59.089Z,22.08
2022-12-04T03:28:40.293Z,22.50
2022-12-04T03:31:09.298Z,21.85
2022-12-04T03:33:43.273Z,22.00
2022-12-04T03:36:28.179Z,22.52
2022-12-04T03:39:00.518Z,21.70
2022-12-04T03:41:36.216Z,21.55
2022-12-04T03:44:12.598Z,21.52
2022-12-04T03:46:52.209Z,20.98
2022-12-04T03:50:02.509Z,21.40
2022-12-04T03:52:42.238Z,21.45
2022-12-04T03:55:15.812Z,22.17
2022-12-04T03:57:45.337Z,21.00
2022-12-04T04:00:18.853Z,21.50
2022-12-04T04:02:52.447Z,22.42
2022-12-04T04:05:20.276Z,22.00
2022-12-04T04:07:51.060Z,21.83
2022-12-04T04:10:22.208Z,22.80
2022-12-04T04:13:16.229Z,23.27
2022-12-04T04:16:07.258Z,21.40
2022-12-04T04:18:52.360Z,22.27
2022-12-04T04:21:41.908Z,22.77
2022-12-04T04:24:18.769Z,22.73
2022-12-04T04:26:47.297Z,22.52
2022-12-04T04:29:14.301Z,22.33
2022-12-04T04:32:08.546Z,22.27
2022-12-04T04:34:50.434Z,22.27
2022-12-04T04:37:32.256Z,22.20
2022-12-04T04:40:19.022Z,22.65
2022-12-04T04:42:55.500Z,22.13
2022-12-04T04:45:35.964Z,23.45
2022-12-04T04:48:08.538Z,23.27
2022-12-04T04:50:36.993Z,21.77
2022-12-04T04:53:08.981Z,22.13
2022-12-04T04:55:36.569Z,22.63
2022-12-04T04:58:11.245Z,22.35
2022-12-04T05:00:38.766Z,22.48
2022-12-04T05:03:06.023Z,23.05
2022-12-04T05:05:32.415Z,22.88
2022-12-04T05:07:58.842Z,22.38
2022-12-04T05:10:25.247Z,22.75
2022-12-04T05:12:51.639Z,21.88
2022-12-04T05:15:18.088Z,22.63
2022-12-04T05:17:44.427Z,22.85
2022-12-04T05:20:11.263Z,23.02
2022-12-04T05:22:38.111Z,23.73
2022-12-04T05:25:06.036Z,23.05
2022-12-04T05:27:33.088Z,23.02
2022-12-04T05:29:59.744Z,23.70
2022-12-04T05:32:28.002Z,22.70
2022-12-04T05:34:57.125Z,23.27
2022-12-04T05:37:24.235Z,22.63
2022-12-04T05:39:50.642Z,22.67
2022-12-04T05:42:17.039Z,21.98
2022-12-04T05:44:43.397Z,22.75
2022-12-04T05:47:10.004Z,23.83
2022-12-04T05:49:36.475Z,24.00
2022-12-04T05:52:05.075Z,23.80
2022-12-04T05:54:31.819Z,23.83
2022-12-04T05:56:58.307Z,24.63
2022-12-04T05:59:24.679Z,23.42
2022-12-04T06:01:51.078Z,23.48
2022-12-04T06:04:17.501Z,24.73
2022-12-04T06:06:43.915Z,22.45
2022-12-04T06:09:11.483Z,22.98
2022-12-04T06:11:40.050Z,23.95
2022-12-04T06:14:09.100Z,23.55
2022-12-04T06:16:37.967Z,23.27
2022-12-04T06:19:11.056Z,22.90
2022-12-04T06:21:39.811Z,22.60
2022-12-04T06:24:07.399Z,24.20
2022-12-04T06:26:33.771Z,25.60
2022-12-04T06:29:00.406Z,24.63
2022-12-04T06:31:29.028Z,23.88
2022-12-04T06:33:57.350Z,23.15
2022-12-04T06:36:24.370Z,24.00
2022-12-04T06:38:51.715Z,24.35
2022-12-04T06:41:20.943Z,24.00
2022-12-04T06:43:47.369Z,24.50
2022-12-04T06:46:16.996Z,24.38
2022-12-04T06:48:43.538Z,24.52
2022-12-04T06:51:16.897Z,27.00
2022-12-04T06:53:44.020Z,27.67
2022-12-04T06:56:16.132Z,26.58
2022-12-04T06:58:42.473Z,24.17
2022-12-04T07:01:11.733Z,24.35
2022-12-04T07:03:39.050Z,25.48
2022-12-04T07:06:24.454Z,25.58
2022-12-04T07:08:58.120Z,24.60
2022-12-04T07:11:24.837Z,24.55
2022-12-04T07:13:51.460Z,24.92
2022-12-04T07:16:20.794Z,24.35
2022-12-04T07:18:50.377Z,25.23
2022-12-04T07:21:20.228Z,24.98
2022-12-04T07:26:15.376Z,24.92
2022-12-04T07:28:41.941Z,23.77
2022-12-04T07:31:13.685Z,24.45
2022-12-04T07:33:40.686Z,25.73
2022-12-04T07:36:09.851Z,25.77
2022-12-04T07:38:36.282Z,26.13
2022-12-04T07:41:04.784Z,25.88
2022-12-04T07:43:31.741Z,26.58
2022-12-04T07:45:58.730Z,25.90
2022-12-04T07:48:30.209Z,26.70
2022-12-04T07:51:05.661Z,26.27
2022-12-04T07:53:33.904Z,26.33
2022-12-04T07:56:00.290Z,27.67
2022-12-04T07:58:26.692Z,26.95
2022-12-04T08:00:53.385Z,25.60
2022-12-04T08:03:19.785Z,26.33
2022-12-04T08:05:46.139Z,26.90
2022-12-04T08:08:13.236Z,27.05
2022-12-04T08:10:40.907Z,28.35
2022-12-04T08:13:07.276Z,28.58
2022-12-04T08:15:34.782Z,26.65
2022-12-04T08:18:01.142Z,26.77
2022-12-04T08:20:27.557Z,26.52
2022-12-04T08:22:53.932Z,26.00
2022-12-04T08:25:20.431Z,25.45
2022-12-04T08:27:47.940Z,26.65
2022-12-04T08:30:14.474Z,65.72
2022-12-04T08:32:40.900Z,39.80
2022-12-04T08:35:07.656Z,26.50
2022-12-04T08:37:34.217Z,25.50
2022-12-04T08:40:00.679Z,25.42
2022-12-04T08:42:27.052Z,26.80
2022-12-04T08:44:53.412Z,26.45
2022-12-04T08:47:19.755Z,25.63
2022-12-04T08:49:46.260Z,27.15
2022-12-04T08:52:12.851Z,26.52
2022-12-04T08:54:39.391Z,27.58
2022-12-04T08:57:06.131Z,45.75
2022-12-04T08:59:32.658Z,37.17
2022-12-04T09:01:59.109Z,27.02
2022-12-04T09:04:25.669Z,27.50
2022-12-04T09:06:52.048Z,25.65
2022-12-04T09:09:18.546Z,27.98
2022-12-04T09:11:46.281Z,27.67
2022-12-04T09:14:12.889Z,27.33
2022-12-04T09:16:39.232Z,27.35
2022-12-04T09:19:05.656Z,28.75
2022-12-04T09:21:32.076Z,27.73
2022-12-04T09:23:59.184Z,27.55
2022-12-04T09:26:28.405Z,29.10
2022-12-04T09:28:55.854Z,28.75
2022-12-04T09:31:23.358Z,27.52
2022-12-04T09:33:50.264Z,27.75
2022-12-04T09:36:17.224Z,28.45
2022-12-04T09:38:45.401Z,28.13
2022-12-04T09:41:49.405Z,28.63
2022-12-04T09:44:28.169Z,28.10
2022-12-04T09:47:01.244Z,27.67
2022-12-04T09:49:36.518Z,27.45
2022-12-04T09:52:11.674Z,27.83
2022-12-04T09:54:42.385Z,27.05
2022-12-04T09:57:17.245Z,27.55
2022-12-04T09:59:44.997Z,30.27
2022-12-04T10:02:33.347Z,62.53
2022-12-04T10:04:59.991Z,28.23
2022-12-04T10:07:28.912Z,27.77
2022-12-04T10:10:04.579Z,27.80
2022-12-04T10:12:46.306Z,27.52
2022-12-04T10:15:40.409Z,27.95
2022-12-04T10:18:15.671Z,27.98
2022-12-04T10:20:51.161Z,28.13
2022-12-04T10:23:51.972Z,28.50
2022-12-04T10:26:23.860Z,27.10
2022-12-04T10:29:01.036Z,28.05
2022-12-04T10:31:29.657Z,29.00
2022-12-04T10:33:58.655Z,28.38
2022-12-04T10:36:31.793Z,27.75
2022-12-04T10:39:10.757Z,28.52
2022-12-04T10:41:45.528Z,28.17
2022-12-04T10:44:16.952Z,28.05
2022-12-04T10:46:46.311Z,28.20
2022-12-04T10:49:29.881Z,28.55
2022-12-04T10:51:56.417Z,28.65
2022-12-04T10:54:37.372Z,27.00
2022-12-04T10:57:08.620Z,27.88
2022-12-04T10:59:38.764Z,28.10
2022-12-04T11:02:24.294Z,27.83
2022-12-04T11:05:17.869Z,27.08
2022-12-04T11:07:47.355Z,27.20
2022-12-04T11:10:25.845Z,26.77
2022-12-04T11:12:57.354Z,25.83
2022-12-04T11:15:24.508Z,27.55
2022-12-04T11:17:52.627Z,26.85
2022-12-04T11:20:26.497Z,27.27
2022-12-04T11:22:59.475Z,29.48
2022-12-04T11:25:31.776Z,27.30
2022-12-04T11:28:01.082Z,27.83
2022-12-04T11:30:38.114Z,30.95
2022-12-04T11:33:14.775Z,31.30
2022-12-04T11:35:41.466Z,28.73
2022-12-04T11:38:18.694Z,27.92
2022-12-04T11:40:50.495Z,27.63
2022-12-04T11:43:18.202Z,28.05
2022-12-04T11:46:02.523Z,27.85
2022-12-04T11:48:31.485Z,27.85
2022-12-04T11:51:17.781Z,27.85
2022-12-04T11:54:09.004Z,26.55
2022-12-04T11:56:42.542Z,27.58
2022-12-04T11:59:44.273Z,27.33
2022-12-04T12:02:32.579Z,26.23
2022-12-04T12:07:48.262Z,26.45
2022-12-04T12:10:27.729Z,26.25
2022-12-04T12:13:13.976Z,27.60
2022-12-04T12:15:53.994Z,25.92
2022-12-04T12:18:24.633Z,27.23
2022-12-04T12:21:08.576Z,27.58
2022-12-04T12:23:59.537Z,26.27
2022-12-04T12:26:55.088Z,27.55
2022-12-04T12:29:56.103Z,26.60
2022-12-04T12:32:31.158Z,24.88
2022-12-04T12:34:58.342Z,26.08
2022-12-04T12:37:49.380Z,27.15
2022-12-04T12:40:25.105Z,27.20
2022-12-04T12:43:04.848Z,26.90
2022-12-04T12:45:43.967Z,26.23
2022-12-04T12:48:24.571Z,29.42
2022-12-04T12:51:22.217Z,31.38
2022-12-04T12:53:51.133Z,31.27
2022-12-04T12:56:20.900Z,31.23
2022-12-04T13:01:34.660Z,26.77
2022-12-04T13:04:13.062Z,24.25
2022-12-04T13:06:42.914Z,24.63
2022-12-04T13:09:26.489Z,25.52
2022-12-04T13:12:00.321Z,25.25
2022-12-04T13:14:26.718Z,25.75
2022-12-04T13:17:01.067Z,23.30
2022-12-04T13:19:44.576Z,23.13
2022-12-04T13:22:26.811Z,22.70
2022-12-04T13:25:03.828Z,21.92
2022-12-04T13:28:01.888Z,20.73
2022-12-04T13:30:42.347Z,21.48
2022-12-04T13:33:20.793Z,21.13
2022-12-04T13:35:50.121Z,21.95
2022-12-04T13:38:35.282Z,23.02
2022-12-04T13:41:05.446Z,21.38
2022-12-04T13:43:36.131Z,22.40
2022-12-04T13:46:06.111Z,39.35
2022-12-04T13:48:43.240Z,22.83
2022-12-04T13:51:41.819Z,19.15
2022-12-04T13:54:10.929Z,18.60
2022-12-04T13:56:39.588Z,19.02
2022-12-04T13:59:18.783Z,18.58
2022-12-04T14:01:48.279Z,18.52
2022-12-04T14:04:45.552Z,18.77
2022-12-04T14:07:25.748Z,18.17
2022-12-04T14:09:54.468Z,18.60
2022-12-04T14:12:28.192Z,18.25
2022-12-04T14:14:59.401Z,18.75
2022-12-04T14:17:33.709Z,17.88
2022-12-04T14:20:07.810Z,18.80
2022-12-04T14:22:34.644Z,19.88
2022-12-04T14:25:13.205Z,21.88
2022-12-04T14:27:42.723Z,23.15
2022-12-04T14:30:28.354Z,25.75
2022-12-04T14:33:01.530Z,26.38
2022-12-04T14:35:29.122Z,27.42
2022-12-04T14:37:59.003Z,27.73
2022-12-04T14:40:28.660Z,27.10
2022-12-04T14:42:55.659Z,26.55
2022-12-04T14:45:52.467Z,27.05
2022-12-04T14:48:48.508Z,26.63
2022-12-04T14:51:41.622Z,27.45
2022-12-04T14:54:36.818Z,28.27
2022-12-04T14:57:31.514Z,45.53
2022-12-04T14:59:58.290Z,35.95
2022-12-04T15:02:41.506Z,30.45
2022-12-04T15:05:10.829Z,29.42
2022-12-04T15:07:37.346Z,28.83
2022-12-04T15:10:40.160Z,29.45
2022-12-04T15:13:06.652Z,27.85
2022-12-04T15:15:33.104Z,27.65
2022-12-04T15:18:17.549Z,26.40
2022-12-04T15:20:49.991Z,25.40
2022-12-04T15:23:41.339Z,25.85
2022-12-04T15:26:20.938Z,25.52
2022-12-04T15:29:00.680Z,26.67
2022-12-04T15:31:33.642Z,28.48
2022-12-04T15:34:03.955Z,28.15
2022-12-04T15:36:44.505Z,27.65
2022-12-04T15:39:18.835Z,35.58
2022-12-04T15:41:45.490Z,34.13
2022-12-04T15:44:30.069Z,33.38
2022-12-04T15:47:00.161Z,29.42
2022-12-04T15:49:31.470Z,28.92
2022-12-04T15:52:15.216Z,28.67
2022-12-04T15:54:44.237Z,28.30
2022-12-04T15:57:44.140Z,29.13
2022-12-04T16:00:42.346Z,26.27
2022-12-04T16:03:32.093Z,26.70
2022-12-04T16:06:22.673Z,27.17
2022-12-04T16:08:52.890Z,29.08
2022-12-04T16:11:20.127Z,43.53
2022-12-04T16:14:03.212Z,26.83
2022-12-04T16:16:32.333Z,28.25
2022-12-04T16:18:59.001Z,29.30
2022-12-04T16:21:31.278Z,27.48
2022-12-04T16:24:05.643Z,28.55
2022-12-04T16:26:32.956Z,29.15
2022-12-04T16:28:59.574Z,28.15
2022-12-04T16:31:26.731Z,28.40
2022-12-04T16:33:57.434Z,28.73
2022-12-04T16:36:23.921Z,28.75
2022-12-04T16:38:50.462Z,27.92
2022-12-04T16:41:19.972Z,28.00
2022-12-04T16:43:56.279Z,27.83
2022-12-04T16:46:24.929Z,26.60
2022-12-04T16:48:51.449Z,27.60
2022-12-04T16:51:23.344Z,27.85
2022-12-04T16:53:53.881Z,28.15
2022-12-04T16:56:21.293Z,27.33
2022-12-04T16:58:47.993Z,26.33
2022-12-04T17:01:28.336Z,27.75
2022-12-04T17:06:35.214Z,27.27
2022-12-04T17:09:01.632Z,27.13
2022-12-04T17:11:28.186Z,26.55
2022-12-04T17:13:54.545Z,27.40
2022-12-04T17:16:21.114Z,26.45
2022-12-04T17:18:47.768Z,26.77
2022-12-04T17:21:14.675Z,26.67
2022-12-04T17:23:41.346Z,26.75
2022-12-04T17:26:13.473Z,50.40
2022-12-04T17:28:40.638Z,31.17
2022-12-04T17:31:16.326Z,26.63
2022-12-04T17:33:43.779Z,26.30
2022-12-04T17:36:15.251Z,27.13
2022-12-04T17:38:41.860Z,26.08
2022-12-04T17:41:10.420Z,26.55
2022-12-04T17:43:36.820Z,25.80
2022-12-04T17:46:21.487Z,24.23
2022-12-04T17:48:48.591Z,24.65
2022-12-04T17:51:18.026Z,25.30
2022-12-04T17:53:44.811Z,25.52
2022-12-04T17:56:17.345Z,24.52
2022-12-04T17:58:44.766Z,24.83
2022-12-04T18:01:17.756Z,24.92
2022-12-04T18:03:49.753Z,24.10
2022-12-04T18:06:21.362Z,24.58
2022-12-04T18:08:50.248Z,24.73
2022-12-04T18:11:20.417Z,23.77
2022-12-04T18:13:48.872Z,21.42
2022-12-04T18:16:15.803Z,21.38
2022-12-04T18:18:42.520Z,18.95
2022-12-04T18:21:11.292Z,18.77
2022-12-04T18:23:44.314Z,17.40
2022-12-04T18:26:16.937Z,14.50
2022-12-04T18:28:43.892Z,13.88
2022-12-04T18:31:10.860Z,13.25
2022-12-04T18:33:39.096Z,13.05
2022-12-04T18:36:09.125Z,14.02
2022-12-04T18:38:35.664Z,16.13
2022-12-04T18:41:04.086Z,15.02
2022-12-04T18:43:33.979Z,13.93
2022-12-04T18:46:07.075Z,12.25
2022-12-04T18:48:34.832Z,13.02
2022-12-04T18:51:01.491Z,11.98
2022-12-04T18:53:28.090Z,12.15
2022-12-04T18:55:54.573Z,12.40
2022-12-04T18:58:22.635Z,12.45
2022-12-04T19:00:49.317Z,11.98
2022-12-04T19:03:15.696Z,24.50
2022-12-04T19:05:50.008Z,16.45
2022-12-04T19:08:17.564Z,12.68
2022-12-04T19:10:44.083Z,12.23
2022-12-04T19:13:10.567Z,12.95
2022-12-04T19:15:42.651Z,12.70
2022-12-04T19:18:09.452Z,12.57
2022-12-04T19:20:39.520Z,12.35
2022-12-04T19:23:05.868Z,12.00
2022-12-04T19:25:32.565Z,12.43
2022-12-04T19:27:59.116Z,11.80
2022-12-04T19:30:29.843Z,11.82
2022-12-04T19:32:56.194Z,12.18
2022-12-04T19:35:22.560Z,12.50
2022-12-04T19:37:55.052Z,12.70
2022-12-04T19:40:23.608Z,12.50
2022-12-04T19:42:50.009Z,13.75
2022-12-04T19:45:16.564Z,16.90
2022-12-04T19:47:43.136Z,13.50
2022-12-04T19:50:10.116Z,14.27
2022-12-04T19:52:36.481Z,13.07
2022-12-04T19:55:02.982Z,12.35
2022-12-04T19:57:29.410Z,12.85
2022-12-04T19:59:55.768Z,12.43
2022-12-04T20:02:22.194Z,12.73
2022-12-04T20:04:48.675Z,12.02
2022-12-04T20:07:15.227Z,12.75
2022-12-04T20:09:43.132Z,12.52
2022-12-04T20:12:12.585Z,11.40
2022-12-04T20:14:39.066Z,12.32
2022-12-04T20:17:05.566Z,12.40
2022-12-04T20:19:32.347Z,11.75
2022-12-04T20:21:59.560Z,12.80
2022-12-04T20:24:26.356Z,12.63
2022-12-04T20:26:52.699Z,12.77
2022-12-04T20:29:19.187Z,13.02
2022-12-04T20:31:46.348Z,12.40
2022-12-04T20:34:15.654Z,13.30
2022-12-04T20:36:44.049Z,13.90
2022-12-04T20:39:12.076Z,12.95
2022-12-04T20:41:38.970Z,13.13
2022-12-04T20:44:12.019Z,12.35
2022-12-04T20:46:39.921Z,11.88
2022-12-04T20:49:10.025Z,11.98
2022-12-04T20:51:39.054Z,12.95
2022-12-04T20:54:06.035Z,12.15
2022-12-04T20:56:35.010Z,11.98
2022-12-04T20:59:04.867Z,11.70
2022-12-04T21:01:31.532Z,12.07
2022-12-04T21:03:59.050Z,12.15
2022-12-04T21:06:34.531Z,11.55
2022-12-04T21:09:06.533Z,11.55
2022-12-04T21:11:36.933Z,11.55
2022-12-04T21:14:24.868Z,11.30
2022-12-04T21:16:51.660Z,11.88
2022-12-04T21:19:21.057Z,11.90
2022-12-04T21:21:47.863Z,12.45
2022-12-04T21:24:16.678Z,10.88
2022-12-04T21:26:43.657Z,12.00
2022-12-04T21:29:10.443Z,11.45
2022-12-04T21:31:38.114Z,12.05
2022-12-04T21:34:07.261Z,12.02
2022-12-04T21:36:34.001Z,11.82
2022-12-04T21:39:00.476Z,10.95
2022-12-04T21:41:45.457Z,11.73
2022-12-04T21:44:14.865Z,10.45
2022-12-04T21:46:41.615Z,10.68
2022-12-04T21:49:08.169Z,10.10
2022-12-04T21:54:21.609Z,10.90
2022-12-04T21:56:48.326Z,12.35
2022-12-04T21:59:14.950Z,9.85
2022-12-04T22:01:42.024Z,11.35
2022-12-04T22:04:08.431Z,10.40
2022-12-04T22:06:36.232Z,9.65
2022-12-04T22:09:06.597Z,9.32
2022-12-04T22:11:33.652Z,9.27
2022-12-04T22:14:00.035Z,9.75
2022-12-04T22:16:30.372Z,8.82
2022-12-04T22:18:58.999Z,9.02
2022-12-04T22:21:26.674Z,9.20
2022-12-04T22:24:01.395Z,9.88
2022-12-04T22:26:29.344Z,9.10
2022-12-04T22:28:56.480Z,9.63
2022-12-04T22:31:25.846Z,9.70
2022-12-04T22:33:54.040Z,9.18
2022-12-04T22:36:23.665Z,9.23
2022-12-04T22:39:09.785Z,8.82
2022-12-04T22:41:37.354Z,9.23
2022-12-04T22:44:04.023Z,8.90
2022-12-04T22:46:30.772Z,9.88
2022-12-04T22:48:58.926Z,10.07
2022-12-04T22:51:25.355Z,9.57
2022-12-04T22:53:54.420Z,9.82
2022-12-04T22:56:27.753Z,10.32
2022-12-04T22:58:55.128Z,10.27
2022-12-04T23:01:25.797Z,9.50
2022-12-04T23:03:53.289Z,9.73
2022-12-04T23:06:22.444Z,9.75
2022-12-04T23:08:53.470Z,10.85
2022-12-04T23:11:21.926Z,10.18
2022-12-04T23:13:54.529Z,10.15
2022-12-04T23:16:22.733Z,10.27
2022-12-04T23:18:49.913Z,10.95
2022-12-04T23:21:18.075Z,9.88
2022-12-04T23:23:46.151Z,10.85
2022-12-04T23:26:15.691Z,10.95
2022-12-04T23:28:42.647Z,13.00
2022-12-04T23:31:09.279Z,11.98
2022-12-04T23:33:35.723Z,10.82
2022-12-04T23:36:03.300Z,11.65
2022-12-04T23:38:30.843Z,11.30
2022-12-04T23:41:05.552Z,11.18
2022-12-04T23:43:32.736Z,11.27
2022-12-04T23:45:59.241Z,11.73
2022-12-04T23:48:25.774Z,11.77
2022-12-04T23:50:53.127Z,10.88
2022-12-04T23:53:20.553Z,12.50
2022-12-04T23:56:03.562Z,12.02
2022-12-04T23:58:31.455Z,11.75
